Time;durP1;ratioP1;P1;durP2;ratioP2;P2;SDS_P1;SDS_P2;PMS_P1;PMS_P2;Temp;Humidity;BMP_temperature;BMP_pressure;BME280_temperature;BME280_humidity;BME280_pressure;Samples;Min_cycle;Max_cycle;Signal;HPM_P1;HPM_P2
2024/02/06 00:01:57;;;;;;;11.70;5.95;;;10.10;99.90;;;;;;5033629;28;20024;-75
2024/02/06 00:04:22;;;;;;;11.07;6.35;;;10.10;99.90;;;;;;5034888;28;20029;-75
2024/02/06 00:06:48;;;;;;;13.30;8.00;;;10.20;99.90;;;;;;5031422;28;20112;-75
2024/02/06 00:09:16;;;;;;;12.73;6.57;;;10.20;99.90;;;;;;5031716;28;20052;-75
2024/02/06 00:11:42;;;;;;;10.85;7.20;;;10.10;99.90;;;;;;5013251;28;20083;-74
2024/02/06 00:14:10;;;;;;;16.33;7.55;;;10.10;99.90;;;;;;5031105;28;20475;-75
2024/02/06 00:16:37;;;;;;;12.35;7.00;;;10.20;99.90;;;;;;5030939;28;20025;-75
2024/02/06 00:19:03;;;;;;;12.65;7.47;;;10.20;99.90;;;;;;5030802;28;20013;-75
2024/02/06 00:21:29;;;;;;;12.65;7.43;;;10.10;99.90;;;;;;5030846;28;20481;-74
2024/02/06 00:23:55;;;;;;;12.30;7.35;;;10.10;99.90;;;;;;5013461;28;20029;-74
2024/02/06 00:26:20;;;;;;;10.65;7.22;;;10.10;99.90;;;;;;5031089;28;20025;-75
2024/02/06 00:28:52;;;;;;;13.82;6.72;;;10.10;99.90;;;;;;5030996;28;20029;-75
2024/02/06 00:31:17;;;;;;;16.00;7.47;;;10.10;99.90;;;;;;5031338;28;20018;-75
2024/02/06 00:33:46;;;;;;;14.13;7.30;;;10.10;99.90;;;;;;5031536;28;20033;-73
2024/02/06 00:36:11;;;;;;;12.65;6.72;;;10.10;99.90;;;;;;5030968;28;20013;-76
2024/02/06 00:38:37;;;;;;;15.63;6.95;;;10.10;99.90;;;;;;5030767;28;20029;-75
2024/02/06 00:41:06;;;;;;;17.80;7.85;;;10.10;99.90;;;;;;5013683;28;20391;-75
2024/02/06 00:43:32;;;;;;;19.05;7.20;;;10.10;99.90;;;;;;5031375;28;20024;-75
2024/02/06 00:46:00;;;;;;;15.00;7.57;;;10.10;99.90;;;;;;5031385;28;20022;-75
2024/02/06 00:48:25;;;;;;;13.77;7.72;;;10.10;99.90;;;;;;5022974;28;20049;-75
2024/02/06 00:50:51;;;;;;;16.83;8.20;;;10.10;99.90;;;;;;5031041;28;20029;-75
2024/02/06 00:53:17;;;;;;;17.35;7.90;;;10.10;99.90;;;;;;5013472;28;20391;-75
2024/02/06 00:55:43;;;;;;;15.95;8.13;;;10.10;99.90;;;;;;5033621;28;20077;-75
2024/02/06 00:58:09;;;;;;;14.75;8.38;;;10.10;99.90;;;;;;5030700;28;20498;-75
2024/02/06 01:00:35;;;;;;;14.60;8.18;;;10.10;99.90;;;;;;5030588;28;20568;-75
2024/02/06 01:03:04;;;;;;;15.73;8.20;;;10.10;99.90;;;;;;5030670;28;20037;-75
2024/02/06 01:05:30;;;;;;;16.35;8.02;;;10.20;99.90;;;;;;5031032;28;20080;-75
2024/02/06 01:07:58;;;;;;;14.82;8.00;;;10.10;99.90;;;;;;5030491;28;20030;-75
2024/02/06 01:10:24;;;;;;;11.88;7.93;;;10.20;99.90;;;;;;5030598;28;20051;-75
2024/02/06 01:12:49;;;;;;;17.33;8.82;;;10.20;99.90;;;;;;5030375;28;20045;-74
2024/02/06 01:15:16;;;;;;;15.73;8.27;;;10.20;99.90;;;;;;5030928;28;20738;-75
2024/02/06 01:17:41;;;;;;;16.90;8.73;;;10.20;99.90;;;;;;5029895;28;20025;-75
2024/02/06 01:20:08;;;;;;;12.82;8.15;;;10.20;99.90;;;;;;5030726;28;20030;-74
2024/02/06 01:22:36;;;;;;;16.73;7.75;;;10.20;99.90;;;;;;5030149;28;20017;-75
2024/02/06 01:25:03;;;;;;;12.98;7.35;;;10.20;99.90;;;;;;5013040;28;20032;-75
2024/02/06 01:27:32;;;;;;;18.65;7.75;;;10.20;99.90;;;;;;5029897;28;20033;-74
2024/02/06 01:29:57;;;;;;;19.08;9.15;;;10.30;99.90;;;;;;5012826;28;20037;-75
2024/02/06 01:32:23;;;;;;;16.08;7.78;;;10.20;99.90;;;;;;5015956;28;20434;-75
2024/02/06 01:34:52;;;;;;;13.35;7.38;;;10.30;99.90;;;;;;5020452;28;20033;-75
2024/02/06 01:37:18;;;;;;;15.18;6.85;;;10.30;99.90;;;;;;5034082;28;20028;-74
2024/02/06 01:39:43;;;;;;;15.45;7.38;;;10.30;99.90;;;;;;5035341;28;20017;-75
2024/02/06 01:42:09;;;;;;;15.73;7.68;;;10.30;99.90;;;;;;5038419;28;20025;-75
2024/02/06 01:44:35;;;;;;;15.98;7.43;;;10.30;99.90;;;;;;5038746;28;20494;-75
2024/02/06 01:47:01;;;;;;;15.30;6.90;;;10.30;99.90;;;;;;5034827;28;20033;-76
2024/02/06 01:49:30;;;;;;;15.65;6.35;;;10.40;99.90;;;;;;5034300;28;20022;-75
2024/02/06 01:51:56;;;;;;;13.70;6.35;;;10.40;99.90;;;;;;5033805;28;20057;-76
2024/02/06 01:54:22;;;;;;;12.82;5.85;;;10.40;99.90;;;;;;5033908;28;20080;-76
2024/02/06 01:56:49;;;;;;;16.23;6.55;;;10.40;99.90;;;;;;5033568;28;20029;-75
2024/02/06 01:59:15;;;;;;;15.20;6.35;;;10.40;99.90;;;;;;5016153;28;20029;-75
2024/02/06 02:01:42;;;;;;;15.57;6.93;;;10.40;99.90;;;;;;5033257;28;20029;-76
2024/02/06 02:04:09;;;;;;;12.70;5.95;;;10.40;99.90;;;;;;5015946;28;20542;-75
2024/02/06 02:06:35;;;;;;;13.23;5.93;;;10.40;99.90;;;;;;5034433;28;20038;-75
2024/02/06 02:09:05;;;;;;;17.23;6.28;;;10.40;99.90;;;;;;5037974;28;20483;-75
2024/02/06 02:11:31;;;;;;;15.90;6.63;;;10.40;99.90;;;;;;5035473;28;20515;-75
2024/02/06 02:13:57;;;;;;;12.25;5.95;;;10.40;99.90;;;;;;5033689;28;20068;-75
2024/02/06 02:16:23;;;;;;;14.02;5.90;;;10.40;99.90;;;;;;5034036;28;20017;-74
2024/02/06 02:18:49;;;;;;;15.23;6.40;;;10.40;99.90;;;;;;5032994;28;20040;-76
2024/02/06 02:21:21;;;;;;;13.82;5.05;;;10.40;99.90;;;;;;5033781;28;20387;-74
2024/02/06 02:23:46;;;;;;;15.93;4.65;;;10.40;99.90;;;;;;5015262;28;20033;-75
2024/02/06 02:26:15;;;;;;;11.63;4.78;;;10.50;99.90;;;;;;5033631;28;20096;-73
2024/02/06 02:28:42;;;;;;;14.00;5.30;;;10.50;99.90;;;;;;5032680;28;20108;-74
2024/02/06 02:31:09;;;;;;;13.70;4.97;;;10.50;99.90;;;;;;5033481;28;20022;-74
2024/02/06 02:33:36;;;;;;;14.50;5.10;;;10.50;99.90;;;;;;5014836;28;20033;-75
2024/02/06 02:36:10;;;;;;;22.25;5.80;;;10.50;99.90;;;;;;5033473;28;20043;-74
2024/02/06 02:38:37;;;;;;;13.15;5.28;;;10.50;99.90;;;;;;5016842;28;20041;-73
2024/02/06 02:41:03;;;;;;;11.38;4.80;;;10.50;99.90;;;;;;5019853;28;20024;-75
2024/02/06 02:43:28;;;;;;;15.50;4.57;;;10.50;99.90;;;;;;5033272;28;20025;-74
2024/02/06 02:45:54;;;;;;;12.32;4.57;;;10.50;99.90;;;;;;5033204;28;20037;-75
2024/02/06 02:48:20;;;;;;;11.57;4.55;;;10.50;99.90;;;;;;5032405;28;20091;-74
2024/02/06 02:50:46;;;;;;;11.85;4.47;;;10.50;99.90;;;;;;5033073;28;20013;-75
2024/02/06 02:53:11;;;;;;;13.07;4.45;;;10.50;99.90;;;;;;5032545;28;20040;-73
2024/02/06 02:55:37;;;;;;;13.07;4.07;;;10.50;99.90;;;;;;5033407;28;20021;-74
2024/02/06 02:58:04;;;;;;;11.98;4.25;;;10.50;99.90;;;;;;5014593;28;20028;-75
2024/02/06 03:00:29;;;;;;;12.45;3.90;;;10.60;99.90;;;;;;5018197;28;20098;-75
2024/02/06 03:02:58;;;;;;;12.93;4.60;;;10.60;99.90;;;;;;5032463;28;20048;-75
2024/02/06 03:05:24;;;;;;;10.45;4.03;;;10.60;99.90;;;;;;5032757;28;20051;-75
2024/02/06 03:07:49;;;;;;;13.88;4.63;;;10.60;99.90;;;;;;5032453;28;20034;-75
2024/02/06 03:10:15;;;;;;;15.07;4.57;;;10.60;99.90;;;;;;5032796;28;20025;-75
2024/02/06 03:12:41;;;;;;;15.52;4.75;;;10.60;99.90;;;;;;5031999;28;20075;-75
2024/02/06 03:15:07;;;;;;;10.93;4.15;;;10.60;99.90;;;;;;5032616;28;20025;-75
2024/02/06 03:17:32;;;;;;;13.18;4.75;;;10.60;99.90;;;;;;5013905;28;20021;-74
2024/02/06 03:20:03;;;;;;;14.65;4.63;;;10.70;99.90;;;;;;5032605;28;20559;-75
2024/02/06 03:22:33;;;;;;;9.63;3.75;;;10.70;99.90;;;;;;5032062;28;20035;-75
2024/02/06 03:24:59;;;;;;;14.45;4.47;;;10.70;99.90;;;;;;5032562;28;20017;-75
2024/02/06 03:27:28;;;;;;;13.85;4.18;;;10.70;99.90;;;;;;5017220;28;20140;-75
2024/02/06 03:29:53;;;;;;;16.48;4.88;;;10.70;99.90;;;;;;5018877;28;20029;-75
2024/02/06 03:32:19;;;;;;;16.17;4.95;;;10.70;99.90;;;;;;5035315;28;20025;-74
2024/02/06 03:34:45;;;;;;;15.07;5.55;;;10.70;99.90;;;;;;5032175;28;20030;-74
2024/02/06 03:37:14;;;;;;;15.40;5.13;;;10.70;99.90;;;;;;5014242;28;20022;-73
2024/02/06 03:39:40;;;;;;;18.55;4.50;;;10.70;99.90;;;;;;5013914;28;20029;-75
2024/02/06 03:42:06;;;;;;;16.00;5.32;;;10.70;99.90;;;;;;5014347;28;20434;-75
2024/02/06 03:44:31;;;;;;;17.98;5.57;;;10.70;99.90;;;;;;5031606;28;20037;-75
2024/02/06 03:46:57;;;;;;;12.48;4.80;;;10.70;99.90;;;;;;5031362;28;20021;-74
2024/02/06 03:49:22;;;;;;;16.35;5.65;;;10.60;99.90;;;;;;5032059;28;20037;-75
2024/02/06 03:51:51;;;;;;;12.10;5.88;;;10.70;99.90;;;;;;5014118;28;20029;-74
2024/02/06 03:54:17;;;;;;;18.60;6.80;;;10.60;99.90;;;;;;5030893;28;20021;-75
2024/02/06 03:56:45;;;;;;;14.07;5.60;;;10.60;99.90;;;;;;5031448;28;20034;-75
2024/02/06 03:59:11;;;;;;;14.38;6.30;;;10.60;99.90;;;;;;5031403;28;20013;-76
2024/02/06 04:01:38;;;;;;;16.88;6.65;;;10.60;99.90;;;;;;5013815;28;20032;-75
2024/02/06 04:04:07;;;;;;;16.05;6.30;;;10.60;99.90;;;;;;5031285;28;20562;-75
2024/02/06 04:06:32;;;;;;;16.02;6.97;;;10.50;99.90;;;;;;5031625;28;20029;-75
2024/02/06 04:08:58;;;;;;;15.20;7.15;;;10.50;99.90;;;;;;5031392;28;20113;-75
2024/02/06 04:11:24;;;;;;;13.38;5.57;;;10.50;99.90;;;;;;5034831;28;20021;-74
2024/02/06 04:13:50;;;;;;;12.55;5.97;;;10.50;99.90;;;;;;5013534;28;20105;-74
2024/02/06 04:16:16;;;;;;;11.45;5.63;;;10.50;99.90;;;;;;5032306;28;20017;-75
2024/02/06 04:18:44;;;;;;;18.23;6.30;;;10.50;99.90;;;;;;5033938;28;20036;-75
2024/02/06 04:21:10;;;;;;;13.63;5.72;;;10.50;99.90;;;;;;5031504;28;20024;-75
2024/02/06 04:23:36;;;;;;;14.07;5.90;;;10.60;99.90;;;;;;5031091;28;20487;-75
2024/02/06 04:26:05;;;;;;;15.77;5.63;;;10.50;99.90;;;;;;5031787;28;20029;-75
2024/02/06 04:28:32;;;;;;;15.88;6.43;;;10.50;99.90;;;;;;5034779;28;20021;-75
2024/02/06 04:30:58;;;;;;;11.68;5.32;;;10.50;99.90;;;;;;5031930;28;20084;-75
2024/02/06 04:33:23;;;;;;;19.15;6.55;;;10.50;99.90;;;;;;5030995;28;20013;-75
2024/02/06 04:35:49;;;;;;;19.17;6.13;;;10.50;99.90;;;;;;5031667;28;20483;-75
2024/02/06 04:38:15;;;;;;;16.15;6.43;;;10.50;99.90;;;;;;5030818;28;20018;-74
2024/02/06 04:40:41;;;;;;;13.13;5.78;;;10.50;99.90;;;;;;5031286;28;20074;-73
2024/02/06 04:43:07;;;;;;;20.90;6.30;;;10.50;99.90;;;;;;5016793;28;20489;-74
2024/02/06 04:45:33;;;;;;;17.83;6.65;;;10.50;99.90;;;;;;5017805;28;20571;-72
2024/02/06 04:47:59;;;;;;;13.85;5.93;;;10.50;99.90;;;;;;5032764;28;20132;-75
2024/02/06 04:50:25;;;;;;;12.63;5.53;;;10.50;99.90;;;;;;5031362;28;20031;-74
2024/02/06 04:52:50;;;;;;;17.95;5.80;;;10.50;99.90;;;;;;5030343;28;20021;-74
2024/02/06 04:55:16;;;;;;;15.00;6.20;;;10.50;99.90;;;;;;5030994;28;20563;-75
2024/02/06 04:57:45;;;;;;;15.88;6.00;;;10.50;99.90;;;;;;5030611;28;20022;-73
2024/02/06 05:00:14;;;;;;;10.77;5.88;;;10.50;99.90;;;;;;5030656;28;20113;-75
2024/02/06 05:02:40;;;;;;;14.43;6.22;;;10.50;99.90;;;;;;5030212;28;20507;-74
2024/02/06 05:05:06;;;;;;;12.48;5.43;;;10.50;99.90;;;;;;5031152;28;20086;-74
2024/02/06 05:07:35;;;;;;;11.20;5.30;;;10.50;99.90;;;;;;5012451;28;20030;-74
2024/02/06 05:10:01;;;;;;;15.23;6.10;;;10.50;99.90;;;;;;5030898;28;20025;-76
2024/02/06 05:12:26;;;;;;;15.32;5.95;;;10.50;99.90;;;;;;5031022;28;20126;-74
2024/02/06 05:14:52;;;;;;;13.38;5.20;;;10.50;99.90;;;;;;5016179;28;20026;-75
2024/02/06 05:17:18;;;;;;;16.80;6.18;;;10.50;99.90;;;;;;5030570;28;20021;-72
2024/02/06 05:19:44;;;;;;;15.20;5.97;;;10.50;99.90;;;;;;5030665;28;20018;-74
2024/02/06 05:22:10;;;;;;;15.35;5.85;;;10.50;99.90;;;;;;5030659;28;20180;-74
2024/02/06 05:24:37;;;;;;;18.08;6.07;;;10.50;99.90;;;;;;5030610;28;20021;-74
2024/02/06 05:27:06;;;;;;;18.23;6.22;;;10.50;99.90;;;;;;5030964;28;20101;-74
2024/02/06 05:29:33;;;;;;;15.18;5.40;;;10.50;99.90;;;;;;5029911;28;20037;-74
2024/02/06 05:31:59;;;;;;;17.08;6.32;;;10.50;99.90;;;;;;5012941;28;20034;-75
2024/02/06 05:34:25;;;;;;;15.07;5.47;;;10.50;99.90;;;;;;5012472;28;20041;-75
2024/02/06 05:36:51;;;;;;;13.60;6.80;;;10.50;99.90;;;;;;5030714;28;20113;-75
2024/02/06 05:39:16;;;;;;;24.85;6.55;;;10.50;99.90;;;;;;5012261;28;20111;-74
2024/02/06 05:41:42;;;;;;;13.88;6.25;;;10.50;99.90;;;;;;5030414;28;20533;-75
2024/02/06 05:44:08;;;;;;;18.70;6.88;;;10.50;99.90;;;;;;5030341;28;20029;-75
2024/02/06 05:46:36;;;;;;;16.85;6.88;;;10.50;99.90;;;;;;5030523;28;20021;-74
2024/02/06 05:49:02;;;;;;;13.95;6.65;;;10.50;99.90;;;;;;5029836;28;20103;-75
2024/02/06 05:51:28;;;;;;;17.90;7.53;;;10.50;99.90;;;;;;5030410;28;20032;-75
2024/02/06 05:53:54;;;;;;;13.93;6.53;;;10.40;99.90;;;;;;5030234;28;20561;-75
2024/02/06 05:56:20;;;;;;;24.17;8.68;;;10.40;99.90;;;;;;5030398;28;20041;-75
2024/02/06 05:58:45;;;;;;;20.83;8.10;;;10.40;99.90;;;;;;5012070;28;20108;-74
2024/02/06 06:01:11;;;;;;;22.88;7.68;;;10.40;99.90;;;;;;5012833;28;20022;-75
2024/02/06 06:03:37;;;;;;;15.30;6.88;;;10.40;99.90;;;;;;5032145;28;20017;-74
2024/02/06 06:06:03;;;;;;;19.50;7.65;;;10.30;99.90;;;;;;5031578;28;20060;-75
2024/02/06 06:08:28;;;;;;;18.52;7.95;;;10.30;99.90;;;;;;5029442;28;20652;-75
2024/02/06 06:10:56;;;;;;;17.17;6.93;;;10.30;99.90;;;;;;5030030;28;20373;-75
2024/02/06 06:13:23;;;;;;;14.68;6.93;;;10.30;99.90;;;;;;5030219;28;20487;-74
2024/02/06 06:15:49;;;;;;;13.38;6.72;;;10.30;99.90;;;;;;5030081;28;20049;-75
2024/02/06 06:18:15;;;;;;;16.88;6.50;;;10.30;99.90;;;;;;5031691;28;20464;-75
2024/02/06 06:20:41;;;;;;;14.00;6.72;;;10.20;99.90;;;;;;5015766;28;20039;-75
2024/02/06 06:23:06;;;;;;;16.88;6.90;;;10.20;99.90;;;;;;5036339;28;20009;-74
2024/02/06 06:25:32;;;;;;;18.13;7.03;;;10.20;99.90;;;;;;5033805;28;20056;-74
2024/02/06 06:27:58;;;;;;;14.00;6.82;;;10.20;99.90;;;;;;5032970;28;20010;-75
2024/02/06 06:30:24;;;;;;;15.50;7.20;;;10.20;99.90;;;;;;5033491;28;20036;-75
2024/02/06 06:32:50;;;;;;;21.33;6.75;;;10.20;99.90;;;;;;5034721;28;20033;-75
2024/02/06 06:35:18;;;;;;;13.77;7.32;;;10.20;99.90;;;;;;5033054;28;20030;-75
2024/02/06 06:37:44;;;;;;;16.15;7.95;;;10.20;99.90;;;;;;5032919;28;20386;-74
2024/02/06 06:40:10;;;;;;;17.45;7.15;;;10.20;99.90;;;;;;5032250;28;20480;-75
2024/02/06 06:42:39;;;;;;;13.10;6.63;;;10.20;99.90;;;;;;5032748;28;20029;-74
2024/02/06 06:45:05;;;;;;;16.73;6.80;;;10.20;99.90;;;;;;5019743;28;20437;-74
2024/02/06 06:47:34;;;;;;;15.90;6.40;;;10.20;99.90;;;;;;5014662;28;20033;-74
2024/02/06 06:50:00;;;;;;;14.82;6.85;;;10.20;99.90;;;;;;5015251;28;20096;-74
2024/02/06 06:52:30;;;;;;;14.40;6.45;;;10.20;99.90;;;;;;5032897;28;20029;-73
2024/02/06 06:54:56;;;;;;;18.90;6.90;;;10.20;99.90;;;;;;5033402;28;20021;-73
2024/02/06 06:57:24;;;;;;;19.17;7.32;;;10.20;99.90;;;;;;5037605;28;20364;-74
2024/02/06 06:59:50;;;;;;;16.50;6.00;;;10.20;99.90;;;;;;5037316;28;20030;-75
2024/02/06 07:02:17;;;;;;;13.88;7.18;;;10.20;99.90;;;;;;5016677;28;20025;-74
2024/02/06 07:04:49;;;;;;;21.83;7.35;;;10.20;99.90;;;;;;5020585;28;20029;-74
2024/02/06 07:07:17;;;;;;;19.92;5.82;;;10.30;99.90;;;;;;5024553;28;20097;-74
2024/02/06 07:09:43;;;;;;;21.77;6.40;;;10.30;99.90;;;;;;5025640;28;20026;-74
2024/02/06 07:12:12;;;;;;;16.92;5.90;;;10.30;99.90;;;;;;5024438;28;20147;-75
2024/02/06 07:14:38;;;;;;;10.55;5.03;;;10.30;99.90;;;;;;5027108;28;20044;-75
2024/02/06 07:17:06;;;;;;;16.40;5.80;;;10.30;99.90;;;;;;5009687;28;20450;-74
2024/02/06 07:19:32;;;;;;;14.25;5.40;;;10.30;99.90;;;;;;5018984;28;20029;-74
2024/02/06 07:21:58;;;;;;;22.45;6.82;;;10.30;99.90;;;;;;5032361;28;20013;-74
2024/02/06 07:24:27;;;;;;;16.65;5.80;;;10.30;99.90;;;;;;5034372;28;20029;-74
2024/02/06 07:26:53;;;;;;;15.90;5.93;;;10.30;99.90;;;;;;5016973;28;20059;-74
2024/02/06 07:29:19;;;;;;;20.00;6.90;;;10.30;99.90;;;;;;5028319;28;20025;-74
2024/02/06 07:31:45;;;;;;;14.02;6.25;;;10.30;99.90;;;;;;5011452;28;20172;-75
2024/02/06 07:34:10;;;;;;;20.92;7.20;;;10.30;99.90;;;;;;5027635;28;20029;-74
2024/02/06 07:36:36;;;;;;;18.73;6.70;;;10.20;99.90;;;;;;5031865;28;20048;-74
2024/02/06 07:39:05;;;;;;;12.35;5.57;;;10.20;99.90;;;;;;5032066;28;20024;-74
2024/02/06 07:41:30;;;;;;;17.35;6.45;;;10.20;99.90;;;;;;5032375;28;20033;-74
2024/02/06 07:43:58;;;;;;;20.20;6.60;;;10.20;99.90;;;;;;5032259;28;20021;-75
2024/02/06 07:46:23;;;;;;;19.70;6.28;;;10.20;99.90;;;;;;5031734;28;20032;-75
2024/02/06 07:48:51;;;;;;;19.55;6.63;;;10.20;99.90;;;;;;5031817;28;20095;-75
2024/02/06 07:51:19;;;;;;;20.65;6.80;;;10.10;99.90;;;;;;5017803;28;20487;-74
2024/02/06 07:53:45;;;;;;;16.60;6.28;;;10.10;99.90;;;;;;5029757;28;20054;-74
2024/02/06 07:56:11;;;;;;;15.32;6.88;;;10.10;99.90;;;;;;5013929;28;20104;-74
2024/02/06 07:58:37;;;;;;;21.30;6.53;;;10.10;99.90;;;;;;5031227;28;20017;-75
2024/02/06 08:01:03;;;;;;;16.08;6.32;;;10.10;99.90;;;;;;5028143;28;20041;-73
2024/02/06 08:03:29;;;;;;;19.20;7.65;;;10.00;99.90;;;;;;5022382;28;20026;-75
2024/02/06 08:05:55;;;;;;;16.10;7.25;;;10.00;99.90;;;;;;5027183;28;20025;-74
2024/02/06 08:08:22;;;;;;;17.13;6.90;;;10.00;99.90;;;;;;5021419;28;20072;-74
2024/02/06 08:10:47;;;;;;;19.10;7.88;;;10.00;99.90;;;;;;5019532;28;20033;-74
2024/02/06 08:13:13;;;;;;;22.98;7.97;;;10.00;99.90;;;;;;5021380;28;20135;-74
2024/02/06 08:15:40;;;;;;;11.48;6.07;;;10.00;99.90;;;;;;5026426;28;20026;-75
2024/02/06 08:18:06;;;;;;;19.48;7.72;;;10.00;99.90;;;;;;5030241;28;20056;-75
2024/02/06 08:20:31;;;;;;;14.75;7.07;;;10.00;99.90;;;;;;5027272;28;20025;-74
2024/02/06 08:22:57;;;;;;;19.13;6.28;;;10.00;99.90;;;;;;5026900;28;20071;-74
2024/02/06 08:25:23;;;;;;;17.98;6.82;;;10.10;99.90;;;;;;5031134;28;20029;-74
2024/02/06 08:27:49;;;;;;;17.52;6.38;;;10.00;99.90;;;;;;5033059;28;20037;-74
2024/02/06 08:30:15;;;;;;;14.10;5.57;;;10.10;99.90;;;;;;5032585;28;20025;-74
2024/02/06 08:32:41;;;;;;;17.33;6.68;;;10.10;99.90;;;;;;5024524;28;20483;-74
2024/02/06 08:35:07;;;;;;;17.70;6.28;;;10.10;99.90;;;;;;5012346;28;20477;-73
2024/02/06 08:37:33;;;;;;;20.77;6.85;;;10.10;99.90;;;;;;5028190;28;20085;-74
2024/02/06 08:40:06;;;;;;;17.30;6.65;;;10.10;99.90;;;;;;5011710;28;20049;-75
2024/02/06 08:42:35;;;;;;;18.05;6.78;;;10.10;99.90;;;;;;5030822;28;20395;-74
2024/02/06 08:45:02;;;;;;;16.08;6.18;;;10.10;99.90;;;;;;5026273;28;20025;-75
2024/02/06 08:47:28;;;;;;;15.45;6.57;;;10.10;99.90;;;;;;5028610;28;20029;-74
2024/02/06 08:49:54;;;;;;;16.02;6.13;;;10.10;99.90;;;;;;5029084;28;20103;-74
2024/02/06 08:52:20;;;;;;;15.95;6.07;;;10.20;99.90;;;;;;5029570;28;20481;-75
2024/02/06 08:54:46;;;;;;;21.23;5.85;;;10.20;99.90;;;;;;5028737;28;20083;-75
2024/02/06 08:57:12;;;;;;;16.70;6.05;;;10.20;99.90;;;;;;5011440;28;20017;-74
2024/02/06 08:59:38;;;;;;;15.35;6.57;;;10.20;99.90;;;;;;5020592;28;20045;-73
2024/02/06 09:02:04;;;;;;;23.85;5.95;;;10.20;99.90;;;;;;5002828;28;20018;-75
2024/02/06 09:04:30;;;;;;;21.60;5.63;;;10.20;99.90;;;;;;5018563;28;20043;-75
2024/02/06 09:06:56;;;;;;;18.63;5.70;;;10.20;99.90;;;;;;5019111;28;20034;-74
2024/02/06 09:09:22;;;;;;;22.80;5.75;;;10.30;99.90;;;;;;5030402;28;20039;-74
2024/02/06 09:11:48;;;;;;;19.67;5.78;;;10.30;99.90;;;;;;5012876;28;20029;-75
2024/02/06 09:14:17;;;;;;;16.58;5.57;;;10.40;99.90;;;;;;5029795;28;20018;-74
2024/02/06 09:16:42;;;;;;;19.40;6.03;;;10.40;99.90;;;;;;5016303;28;20399;-75
2024/02/06 09:19:08;;;;;;;19.48;6.07;;;10.40;99.90;;;;;;5029819;28;20017;-75
2024/02/06 09:21:37;;;;;;;15.00;5.03;;;10.40;99.90;;;;;;5022715;28;20064;-74
2024/02/06 09:24:03;;;;;;;18.17;4.68;;;10.40;99.90;;;;;;5027059;28;20083;-74
2024/02/06 09:26:32;;;;;;;20.90;5.82;;;10.50;99.90;;;;;;5030141;28;20029;-74
2024/02/06 09:28:58;;;;;;;21.58;5.65;;;10.50;99.90;;;;;;5029979;28;20522;-73
2024/02/06 09:31:26;;;;;;;16.08;5.25;;;10.50;99.90;;;;;;5030103;28;20022;-73
2024/02/06 09:33:52;;;;;;;19.80;5.05;;;10.50;99.90;;;;;;5029726;28;20425;-73
2024/02/06 09:36:18;;;;;;;25.77;5.45;;;10.60;99.90;;;;;;5030189;28;20013;-74
2024/02/06 09:38:46;;;;;;;15.48;5.20;;;10.60;99.90;;;;;;5029744;28;20029;-72
2024/02/06 09:41:12;;;;;;;15.57;4.88;;;10.60;99.90;;;;;;5029170;28;20487;-74
2024/02/06 09:43:42;;;;;;;13.88;4.80;;;10.70;99.90;;;;;;5010726;28;20040;-72
2024/02/06 09:46:08;;;;;;;14.98;3.97;;;10.70;99.90;;;;;;5016708;28;20022;-74
2024/02/06 09:48:34;;;;;;;10.45;3.45;;;10.80;99.90;;;;;;5029537;28;20053;-73
2024/02/06 09:51:00;;;;;;;16.30;3.25;;;10.90;99.90;;;;;;5030237;28;20490;-73
2024/02/06 09:53:30;;;;;;;15.13;3.13;;;11.00;99.90;;;;;;5033730;28;20013;-73
2024/02/06 09:55:56;;;;;;;12.55;3.00;;;11.00;99.90;;;;;;5038553;28;20025;-74
2024/02/06 09:58:24;;;;;;;10.00;2.80;;;11.10;99.90;;;;;;5034278;28;20128;-74
2024/02/06 10:00:53;;;;;;;15.43;2.83;;;11.20;99.90;;;;;;5028296;28;20064;-75
2024/02/06 10:03:28;;;;;;;11.00;3.47;;;11.30;99.90;;;;;;5015735;28;20564;-75
2024/02/06 10:05:58;;;;;;;12.95;3.75;;;11.40;99.90;;;;;;5016207;28;20029;-74
2024/02/06 10:08:24;;;;;;;11.68;2.92;;;11.40;99.90;;;;;;5033157;28;20060;-74
2024/02/06 10:10:50;;;;;;;10.52;3.22;;;11.50;99.90;;;;;;5033443;28;20025;-74
2024/02/06 10:13:16;;;;;;;13.70;3.72;;;11.50;99.90;;;;;;5033748;28;20031;-74
2024/02/06 10:15:42;;;;;;;11.55;3.15;;;11.60;99.90;;;;;;5005338;28;20138;-74
2024/02/06 10:18:11;;;;;;;13.90;3.65;;;11.60;99.90;;;;;;5015394;28;20065;-74
2024/02/06 10:20:44;;;;;;;12.38;4.43;;;11.60;99.90;;;;;;5033161;28;20548;-74
2024/02/06 10:23:15;;;;;;;12.15;4.30;;;11.60;99.90;;;;;;5033278;28;20032;-75
2024/02/06 10:25:45;;;;;;;11.38;4.53;;;11.60;99.90;;;;;;5033159;28;20483;-74
2024/02/06 10:28:23;;;;;;;17.27;4.65;;;11.70;99.90;;;;;;5021204;28;20022;-74
2024/02/06 10:30:52;;;;;;;15.48;4.22;;;11.60;99.90;;;;;;5018527;28;20060;-73
2024/02/06 10:33:21;;;;;;;13.20;4.70;;;11.60;99.90;;;;;;5020838;28;20021;-74
2024/02/06 10:35:48;;;;;;;15.20;4.68;;;11.60;99.90;;;;;;5015286;28;20340;-75
2024/02/06 10:38:15;;;;;;;19.55;4.75;;;11.60;99.90;;;;;;5032764;28;20045;-73
2024/02/06 10:40:43;;;;;;;15.48;4.93;;;11.60;99.90;;;;;;5014866;28;20025;-75
2024/02/06 10:43:10;;;;;;;21.65;5.40;;;11.60;99.90;;;;;;5015402;28;20026;-75
2024/02/06 10:45:36;;;;;;;15.93;4.57;;;11.60;99.90;;;;;;5034441;28;20029;-75
2024/02/06 10:48:03;;;;;;;13.98;5.00;;;11.60;99.90;;;;;;5019564;28;20057;-74
2024/02/06 10:50:30;;;;;;;24.48;5.10;;;11.60;99.90;;;;;;5033462;28;20056;-75
2024/02/06 10:52:56;;;;;;;16.30;5.53;;;11.70;99.90;;;;;;5015086;28;20057;-74
2024/02/06 10:55:22;;;;;;;15.88;4.53;;;11.70;99.90;;;;;;5032374;28;20055;-73
2024/02/06 10:57:53;;;;;;;23.08;5.07;;;11.80;99.90;;;;;;5033152;28;20021;-72
2024/02/06 11:00:26;;;;;;;17.98;4.00;;;11.80;99.90;;;;;;5032806;28;20057;-73
2024/02/06 11:02:56;;;;;;;12.05;3.63;;;11.90;99.90;;;;;;5014883;28;20068;-74
2024/02/06 11:05:27;;;;;;;17.58;4.03;;;12.00;99.90;;;;;;5014030;28;20025;-73
2024/02/06 11:08:18;;;;;;;10.90;3.65;;;12.00;99.90;;;;;;5015039;28;20792;-73
2024/02/06 11:10:55;;;;;;;13.32;3.70;;;12.10;99.90;;;;;;5014017;28;20034;-73
2024/02/06 11:13:36;;;;;;;14.43;4.78;;;12.20;99.90;;;;;;5014632;28;20033;-73
2024/02/06 11:16:08;;;;;;;21.52;3.72;;;12.20;99.90;;;;;;5014236;28;20028;-74
2024/02/06 11:19:01;;;;;;;18.05;4.55;;;12.30;99.90;;;;;;5032229;28;20014;-74
2024/02/06 11:21:28;;;;;;;11.77;3.15;;;12.40;99.90;;;;;;4972781;28;20034;-74
2024/02/06 11:23:56;;;;;;;14.52;3.88;;;12.40;99.90;;;;;;5014301;28;20028;-73
2024/02/06 11:26:22;;;;;;;14.27;3.97;;;12.40;99.90;;;;;;5014458;28;20029;-74
2024/02/06 11:28:50;;;;;;;14.63;3.80;;;12.40;99.90;;;;;;5032127;28;20044;-74
2024/02/06 11:31:16;;;;;;;17.83;4.03;;;12.40;99.90;;;;;;5032466;28;20045;-73
2024/02/06 11:33:42;;;;;;;14.05;4.13;;;12.40;99.90;;;;;;5031427;28;20036;-75
2024/02/06 11:36:12;;;;;;;16.05;4.40;;;12.40;99.90;;;;;;5037806;28;20032;-74
2024/02/06 11:38:38;;;;;;;17.02;3.92;;;12.40;99.90;;;;;;5016758;28;20029;-74
2024/02/06 11:41:16;;;;;;;11.80;3.22;;;12.40;99.90;;;;;;5031973;28;20017;-75
2024/02/06 11:43:47;;;;;;;13.80;3.65;;;12.40;99.90;;;;;;5000084;28;21425;-73
2024/02/06 11:46:13;;;;;;;20.52;4.72;;;12.40;99.90;;;;;;5031693;28;20021;-75
2024/02/06 11:48:42;;;;;;;15.88;4.65;;;12.30;99.90;;;;;;5030460;28;20080;-73
2024/02/06 11:51:08;;;;;;;12.25;4.13;;;12.30;99.90;;;;;;5011092;28;20450;-75
2024/02/06 11:53:36;;;;;;;10.00;3.17;;;12.30;99.90;;;;;;5031028;28;20071;-73
2024/02/06 11:56:04;;;;;;;7.72;2.78;;;12.30;99.90;;;;;;5005422;28;20037;-74
2024/02/06 11:58:35;;;;;;;13.38;2.55;;;12.30;99.90;;;;;;5024335;28;20037;-75
2024/02/06 12:01:06;;;;;;;8.07;2.05;;;12.30;99.90;;;;;;5027429;28;20029;-74
2024/02/06 12:03:31;;;;;;;;;;;12.30;99.90;;;;;;5013122;28;20494;-75
2024/02/06 12:06:00;;;;;;;8.35;2.42;;;12.30;99.90;;;;;;5025179;28;20104;-75
2024/02/06 12:08:27;;;;;;;13.00;3.13;;;12.30;99.90;;;;;;5022923;28;20041;-76
2024/02/06 12:11:04;;;;;;;9.68;2.97;;;12.30;99.90;;;;;;4996581;28;20462;-75
2024/02/06 12:13:32;;;;;;;12.05;2.70;;;12.40;99.90;;;;;;5027810;28;20022;-76
2024/02/06 12:16:02;;;;;;;10.88;2.63;;;12.30;99.90;;;;;;5029547;28;20427;-76
2024/02/06 12:18:31;;;;;;;6.05;2.40;;;12.40;99.90;;;;;;5016514;28;20060;-75
2024/02/06 12:20:57;;;;;;;6.72;2.75;;;12.30;99.90;;;;;;5027778;28;20020;-74
2024/02/06 12:23:25;;;;;;;6.60;2.47;;;12.30;99.90;;;;;;5027992;28;20033;-74
2024/02/06 12:25:51;;;;;;;7.45;2.13;;;12.40;99.90;;;;;;5011720;28;20037;-75
2024/02/06 12:28:17;;;;;;;8.63;2.83;;;12.40;99.90;;;;;;5009019;28;20486;-74
2024/02/06 12:30:45;;;;;;;9.13;2.30;;;12.40;99.90;;;;;;5030196;28;20025;-74
2024/02/06 12:33:11;;;;;;;10.30;2.60;;;12.40;99.90;;;;;;5030595;28;20723;-74
2024/02/06 12:35:40;;;;;;;10.48;2.55;;;12.40;99.90;;;;;;5030334;28;20117;-74
2024/02/06 12:38:08;;;;;;;13.93;3.30;;;12.50;99.90;;;;;;5030939;28;20100;-74